Time;durP1;ratioP1;P1;durP2;ratioP2;P2;SDS_P1;SDS_P2;PMS_P1;PMS_P2;Temp;Humidity;BMP_temperature;BMP_pressure;BME280_temperature;BME280_humidity;BME280_pressure;Samples;Min_cycle;Max_cycle;Signal;HPM_P1;HPM_P2
2022/01/01 00:01:53;;;;;;;227.45;85.53;;;2.40;99.90;;;;;;5112572;28;20096;-60
2022/01/01 00:04:20;;;;;;;220.70;87.28;;;2.40;99.90;;;;;;5115271;28;20504;-60
2022/01/01 00:06:47;;;;;;;209.95;82.28;;;2.40;99.90;;;;;;5115162;28;20044;-60
2022/01/01 00:09:14;;;;;;;232.45;89.75;;;2.40;99.90;;;;;;5115322;28;20114;-60
2022/01/01 00:11:41;;;;;;;153.38;58.65;;;2.40;99.90;;;;;;5115440;28;20044;-60
2022/01/01 00:14:08;;;;;;;218.77;81.72;;;2.40;99.90;;;;;;5115332;28;20404;-60
2022/01/01 00:16:35;;;;;;;199.82;80.60;;;2.50;99.90;;;;;;5114375;28;20100;-60
2022/01/01 00:19:02;;;;;;;238.55;89.95;;;2.50;99.90;;;;;;5115528;27;20043;-60
2022/01/01 00:21:29;;;;;;;239.65;91.63;;;2.40;99.90;;;;;;5131408;27;20039;-60
2022/01/01 00:23:56;;;;;;;269.25;95.18;;;2.40;99.90;;;;;;5134166;27;20043;-60
2022/01/01 00:26:23;;;;;;;248.52;91.25;;;2.30;99.90;;;;;;5134020;27;20035;-60
2022/01/01 00:28:50;;;;;;;256.45;86.95;;;2.30;99.90;;;;;;5134892;27;20047;-60
2022/01/01 00:31:17;;;;;;;218.05;82.97;;;2.40;99.90;;;;;;5113788;27;20050;-60
2022/01/01 00:33:44;;;;;;;203.00;77.97;;;2.40;99.90;;;;;;5134731;27;20461;-60
2022/01/01 00:36:11;;;;;;;194.27;73.32;;;2.40;99.90;;;;;;5125015;27;20556;-60
2022/01/01 00:38:37;;;;;;;177.15;68.00;;;2.50;99.90;;;;;;5121294;27;20089;-60
2022/01/01 00:41:04;;;;;;;236.55;75.93;;;2.50;99.90;;;;;;5128061;27;20035;-60
2022/01/01 00:43:31;;;;;;;267.40;78.72;;;2.50;99.90;;;;;;5133773;27;20043;-60
2022/01/01 00:45:58;;;;;;;251.73;85.60;;;2.50;99.90;;;;;;5122445;27;20488;-60
2022/01/01 00:48:24;;;;;;;290.08;92.47;;;2.40;99.90;;;;;;5117969;27;20096;-60
2022/01/01 00:50:51;;;;;;;310.65;100.68;;;2.30;99.90;;;;;;5126178;27;20108;-60
2022/01/01 00:53:18;;;;;;;364.48;107.97;;;2.30;99.90;;;;;;5131638;27;20050;-60
2022/01/01 00:55:45;;;;;;;352.13;99.93;;;2.30;99.90;;;;;;5122005;27;20039;-60
2022/01/01 00:58:11;;;;;;;247.10;79.90;;;2.30;99.90;;;;;;5116615;27;20441;-60
2022/01/01 01:00:38;;;;;;;301.20;75.72;;;2.30;99.90;;;;;;5130942;27;20114;-60
2022/01/01 01:03:10;;;;;;;284.10;70.68;;;2.30;99.90;;;;;;5114568;27;20585;-60
2022/01/01 01:05:40;;;;;;;232.63;70.43;;;2.30;99.90;;;;;;5118939;27;20114;-60
2022/01/01 01:08:07;;;;;;;246.93;71.38;;;2.30;99.90;;;;;;5134235;27;20043;-60
2022/01/01 01:10:36;;;;;;;216.85;72.50;;;2.30;99.90;;;;;;5126121;27;20074;-60
2022/01/01 01:13:04;;;;;;;151.65;59.97;;;2.30;99.90;;;;;;5133681;27;20043;-60
2022/01/01 01:15:32;;;;;;;149.63;59.20;;;2.30;99.90;;;;;;5134008;27;20074;-60
2022/01/01 01:17:59;;;;;;;148.55;56.72;;;2.40;99.90;;;;;;5134459;27;20134;-60
2022/01/01 01:20:27;;;;;;;146.60;58.90;;;2.40;99.90;;;;;;5134718;27;20110;-60
2022/01/01 01:22:59;;;;;;;234.93;66.20;;;2.40;99.90;;;;;;5134490;27;20075;-60
2022/01/01 01:25:29;;;;;;;166.32;57.67;;;2.30;99.90;;;;;;5133918;27;20100;-60
2022/01/01 01:28:05;;;;;;;158.18;61.97;;;2.30;99.90;;;;;;5134471;27;20073;-60
2022/01/01 01:30:36;;;;;;;766.47;108.03;;;2.20;99.90;;;;;;5134251;27;20100;-60
2022/01/01 01:33:05;;;;;;;595.85;95.03;;;2.10;99.90;;;;;;5127799;27;20454;-60
2022/01/01 01:35:32;;;;;;;142.85;57.70;;;2.10;99.90;;;;;;5127697;27;20077;-60
2022/01/01 01:37:59;;;;;;;;;;;2.00;99.90;;;;;;5113981;28;20089;-60
2022/01/01 01:40:27;;;;;;;139.63;58.58;;;2.10;99.90;;;;;;5113514;28;19942;-60
2022/01/01 01:42:54;;;;;;;172.70;58.47;;;2.10;99.90;;;;;;5122871;27;20070;-60
2022/01/01 01:45:23;;;;;;;152.38;54.90;;;2.20;99.90;;;;;;5133648;27;20646;-60
2022/01/01 01:47:50;;;;;;;154.63;58.13;;;2.20;99.90;;;;;;5134078;27;20433;-60
2022/01/01 01:50:18;;;;;;;;;;;2.30;99.90;;;;;;5134277;27;20040;-60
2022/01/01 01:52:54;;;;;;;152.80;54.90;;;2.30;99.90;;;;;;5134408;27;20484;-60
2022/01/01 01:55:21;;;;;;;140.35;56.00;;;2.40;99.90;;;;;;5133505;27;20051;-60
2022/01/01 01:57:48;;;;;;;;;;;2.50;99.90;;;;;;5134139;27;20152;-60
2022/01/01 02:00:44;;;;;;;142.20;44.67;;;2.50;99.90;;;;;;5134053;27;19972;-60
2022/01/01 02:03:09;;;;;;;119.70;44.70;;;2.40;99.90;;;;;;5133597;27;20047;-60
2022/01/01 02:05:37;;;;;;;117.40;44.03;;;2.50;99.90;;;;;;5133296;27;20463;-60
2022/01/01 02:08:09;;;;;;;144.85;50.25;;;2.50;99.90;;;;;;5133560;27;20070;-60
2022/01/01 02:10:36;;;;;;;206.40;60.92;;;2.50;99.90;;;;;;5133640;27;20035;-60
2022/01/01 02:13:18;;;;;;;245.50;66.93;;;2.50;99.90;;;;;;5133452;27;20092;-60
2022/01/01 02:18:19;;;;;;;236.27;65.80;;;2.40;99.90;;;;;;5133693;27;20047;-60
2022/01/01 02:20:49;;;;;;;197.55;64.10;;;2.50;99.90;;;;;;5133246;27;20039;-60
2022/01/01 02:23:17;;;;;;;240.13;65.97;;;2.40;99.90;;;;;;5133507;27;20403;-60
2022/01/01 02:25:48;;;;;;;307.15;65.63;;;2.40;99.90;;;;;;5132425;27;20095;-60
2022/01/01 02:28:15;;;;;;;160.20;59.40;;;2.30;99.90;;;;;;5133302;27;20043;-60
2022/01/01 02:30:41;;;;;;;174.88;48.33;;;2.20;99.90;;;;;;5133530;27;20445;-60
2022/01/01 02:33:08;;;;;;;163.55;53.00;;;2.20;99.90;;;;;;5132964;27;20071;-60
2022/01/01 02:35:35;;;;;;;222.82;54.80;;;2.10;99.90;;;;;;5132669;27;20402;-60
2022/01/01 02:38:02;;;;;;;142.80;50.47;;;2.10;99.90;;;;;;5133141;27;20100;-60
2022/01/01 02:40:29;;;;;;;225.57;55.90;;;2.10;99.90;;;;;;5132949;27;20053;-60
2022/01/01 02:42:56;;;;;;;142.68;49.17;;;2.10;99.90;;;;;;5132869;27;20050;-60
2022/01/01 02:45:23;;;;;;;161.38;52.85;;;2.00;99.90;;;;;;5132558;27;20070;-60
2022/01/01 02:47:50;;;;;;;;;;;1.90;99.90;;;;;;5133486;27;20036;-60
2022/01/01 02:50:19;;;;;;;178.25;56.03;;;1.90;99.90;;;;;;5132769;27;19923;-60
2022/01/01 02:52:47;;;;;;;268.77;61.80;;;1.90;99.90;;;;;;5132838;27;20047;-60
2022/01/01 02:55:14;;;;;;;255.10;58.80;;;1.90;99.90;;;;;;5132434;27;20464;-60
2022/01/01 02:57:41;;;;;;;236.88;58.70;;;1.80;99.90;;;;;;5132823;27;20054;-60
2022/01/01 03:00:08;;;;;;;212.90;59.88;;;1.80;99.90;;;;;;5132804;27;20070;-60
2022/01/01 03:02:35;;;;;;;155.13;51.90;;;1.80;99.90;;;;;;5132599;27;20043;-60
2022/01/01 03:05:02;;;;;;;163.18;54.65;;;1.80;99.90;;;;;;5132714;27;20438;-60
2022/01/01 03:07:29;;;;;;;205.15;57.92;;;1.80;99.90;;;;;;5132382;27;20043;-60
2022/01/01 03:09:56;;;;;;;135.05;52.65;;;1.80;99.90;;;;;;5132796;27;20035;-60
2022/01/01 03:12:23;;;;;;;199.60;53.97;;;1.80;99.90;;;;;;5132525;27;20073;-60
2022/01/01 03:14:50;;;;;;;114.70;38.42;;;1.80;99.90;;;;;;5132484;27;20053;-60
2022/01/01 03:17:17;;;;;;;139.15;50.83;;;1.90;99.90;;;;;;5132260;27;20459;-60
2022/01/01 03:19:44;;;;;;;128.48;51.90;;;1.90;99.90;;;;;;5132724;27;20159;-60
2022/01/01 03:22:10;;;;;;;90.63;35.15;;;1.90;99.90;;;;;;5132356;28;20502;-60
2022/01/01 03:24:37;;;;;;;186.68;45.97;;;1.90;99.90;;;;;;5132426;28;20039;-60
2022/01/01 03:27:04;;;;;;;140.02;46.75;;;2.00;99.90;;;;;;5131828;28;20032;-60
2022/01/01 03:29:32;;;;;;;129.38;43.13;;;2.00;99.90;;;;;;5132585;28;20482;-60
2022/01/01 03:32:00;;;;;;;112.55;45.47;;;1.90;99.90;;;;;;5132449;28;20040;-60
2022/01/01 03:34:27;;;;;;;;;;;1.90;99.90;;;;;;5132736;28;20058;-60
2022/01/01 03:36:55;;;;;;;141.60;45.15;;;1.90;99.90;;;;;;5132826;27;19962;-60
2022/01/01 03:39:27;;;;;;;135.43;46.08;;;1.80;99.90;;;;;;5136657;27;20127;-60
2022/01/01 03:41:54;;;;;;;111.00;44.08;;;1.80;99.90;;;;;;5136584;27;20042;-60
2022/01/01 03:44:20;;;;;;;104.10;43.67;;;1.80;99.90;;;;;;5136313;27;20043;-60
2022/01/01 03:46:47;;;;;;;108.60;43.03;;;1.90;99.90;;;;;;5136067;27;20044;-60
2022/01/01 03:49:14;;;;;;;103.00;44.75;;;1.80;99.90;;;;;;5136354;27;20084;-60
2022/01/01 03:51:41;;;;;;;96.78;43.38;;;1.90;99.90;;;;;;5136470;27;20043;-60
2022/01/01 03:54:08;;;;;;;100.35;40.25;;;1.90;99.90;;;;;;5136094;27;20040;-60
2022/01/01 03:56:37;;;;;;;84.38;39.35;;;1.80;99.90;;;;;;5135929;27;20031;-60
2022/01/01 03:59:05;;;;;;;82.07;38.30;;;1.90;99.90;;;;;;5136165;27;20043;-60
2022/01/01 04:01:32;;;;;;;91.35;37.70;;;1.80;99.90;;;;;;5136319;27;20463;-60
2022/01/01 04:03:59;;;;;;;;;;;1.80;99.90;;;;;;5136507;27;20126;-60
2022/01/01 04:06:26;;;;;;;91.03;36.28;;;1.80;99.90;;;;;;5135688;27;19920;-60
2022/01/01 04:08:53;;;;;;;98.53;33.50;;;1.90;99.90;;;;;;5136076;27;20070;-60
2022/01/01 04:11:21;;;;;;;110.53;40.13;;;1.90;99.90;;;;;;5135812;27;20112;-60
2022/01/01 04:13:49;;;;;;;120.22;41.92;;;1.80;99.90;;;;;;5135837;27;20050;-60
2022/01/01 04:16:17;;;;;;;;;;;1.70;99.90;;;;;;5136021;27;20043;-60
2022/01/01 04:18:45;;;;;;;102.95;41.38;;;1.70;99.90;;;;;;5135721;27;19919;-60
2022/01/01 04:21:13;;;;;;;117.43;42.95;;;1.70;99.90;;;;;;5135905;27;20074;-60
2022/01/01 04:23:41;;;;;;;117.18;42.80;;;1.70;99.90;;;;;;5135644;27;20067;-60
2022/01/01 04:26:09;;;;;;;107.28;42.85;;;1.70;99.90;;;;;;5135279;27;20068;-60
2022/01/01 04:28:37;;;;;;;135.68;44.92;;;1.70;99.90;;;;;;5135496;27;20491;-60
2022/01/01 04:31:04;;;;;;;156.13;46.85;;;1.70;99.90;;;;;;5135657;27;20446;-60
2022/01/01 04:33:31;;;;;;;148.13;46.55;;;1.70;99.90;;;;;;5143986;22;20431;-60
2022/01/01 04:35:58;;;;;;;135.43;45.15;;;1.60;99.90;;;;;;5113562;28;20101;-60
2022/01/01 04:38:39;;;;;;;125.32;44.50;;;1.60;99.90;;;;;;5114889;28;20048;-60
2022/01/01 04:41:12;;;;;;;159.27;46.28;;;1.60;99.90;;;;;;5114871;28;20495;-61
2022/01/01 04:43:46;;;;;;;168.98;48.95;;;1.60;99.90;;;;;;5113161;27;20092;-61
2022/01/01 04:46:14;;;;;;;139.65;46.50;;;1.60;99.90;;;;;;5132774;27;20035;-61
2022/01/01 04:48:41;;;;;;;112.80;45.10;;;1.60;99.90;;;;;;5134997;27;20047;-60
2022/01/01 04:51:09;;;;;;;154.20;43.80;;;1.60;99.90;;;;;;5135159;27;20047;-60
2022/01/01 04:53:39;;;;;;;104.70;40.53;;;1.50;99.90;;;;;;5134958;27;20035;-60
2022/01/01 04:56:07;;;;;;;85.68;37.72;;;1.50;99.90;;;;;;5134768;27;20380;-60
2022/01/01 04:58:35;;;;;;;98.45;39.38;;;1.50;99.90;;;;;;5134976;27;20047;-60
2022/01/01 05:01:02;;;;;;;119.30;39.03;;;1.40;99.90;;;;;;5135040;27;20043;-60
2022/01/01 05:03:29;;;;;;;114.15;39.47;;;1.40;99.90;;;;;;5134897;27;20078;-60
2022/01/01 05:05:56;;;;;;;121.93;40.88;;;1.40;99.90;;;;;;5134497;27;20039;-60
2022/01/01 05:08:23;;;;;;;117.47;40.05;;;1.30;99.90;;;;;;5134933;27;20047;-60
2022/01/01 05:10:50;;;;;;;108.13;38.50;;;1.40;99.90;;;;;;5134810;27;20088;-60
2022/01/01 05:13:19;;;;;;;116.90;40.80;;;1.40;99.90;;;;;;5134647;27;20084;-60
2022/01/01 05:15:46;;;;;;;134.50;39.78;;;1.30;99.90;;;;;;5134450;27;20061;-61
2022/01/01 05:18:15;;;;;;;111.65;39.35;;;1.30;99.90;;;;;;5134756;27;20452;-60
2022/01/01 05:20:42;;;;;;;104.03;39.00;;;1.30;99.90;;;;;;5134491;27;20043;-60
2022/01/01 05:23:09;;;;;;;129.98;41.22;;;1.20;99.90;;;;;;5134641;27;20101;-60
2022/01/01 05:25:36;;;;;;;104.88;43.05;;;1.30;99.90;;;;;;5133866;27;20036;-60
2022/01/01 05:28:03;;;;;;;115.43;41.00;;;1.30;99.90;;;;;;5134630;27;20043;-60
2022/01/01 05:30:30;;;;;;;132.32;41.38;;;1.20;99.90;;;;;;5134425;27;20039;-60
2022/01/01 05:33:00;;;;;;;150.52;42.90;;;1.30;99.90;;;;;;5134234;27;20047;-60
2022/01/01 05:35:28;;;;;;;126.93;43.58;;;1.30;99.90;;;;;;5133682;27;20118;-60
2022/01/01 05:37:55;;;;;;;124.78;42.75;;;1.30;99.90;;;;;;5134318;27;20461;-61
2022/01/01 05:40:23;;;;;;;87.88;33.05;;;1.20;99.90;;;;;;5134274;27;20045;-61
2022/01/01 05:42:50;;;;;;;153.88;45.63;;;1.30;99.90;;;;;;5134177;27;20483;-60
2022/01/01 05:45:17;;;;;;;171.32;44.03;;;1.30;99.90;;;;;;5133510;27;20039;-60
2022/01/01 05:47:44;;;;;;;124.43;41.95;;;1.30;99.90;;;;;;5114331;27;20552;-60
2022/01/01 05:50:11;;;;;;;143.75;43.10;;;1.30;99.90;;;;;;5132087;27;20045;-60
2022/01/01 05:52:38;;;;;;;131.05;41.25;;;1.30;99.90;;;;;;5132339;27;20040;-60
2022/01/01 05:55:05;;;;;;;134.57;41.97;;;1.30;99.90;;;;;;5131845;27;20075;-60
2022/01/01 05:57:32;;;;;;;146.23;42.90;;;1.30;99.90;;;;;;5131943;27;20043;-60
2022/01/01 05:59:59;;;;;;;133.93;41.65;;;1.20;99.90;;;;;;5131929;27;20079;-60
2022/01/01 06:02:26;;;;;;;101.10;40.28;;;1.20;99.90;;;;;;5133668;27;20126;-60
2022/01/01 06:04:53;;;;;;;79.35;34.38;;;1.20;99.90;;;;;;5133495;27;20510;-60
2022/01/01 06:07:20;;;;;;;84.13;35.95;;;1.20;99.90;;;;;;5133359;27;20039;-60
2022/01/01 06:09:49;;;;;;;68.95;24.83;;;1.20;99.90;;;;;;5133724;27;20552;-61
2022/01/01 06:12:16;;;;;;;81.70;34.55;;;1.20;99.90;;;;;;5133533;27;20126;-60
2022/01/01 06:14:43;;;;;;;66.40;31.75;;;1.20;99.90;;;;;;5133567;27;20483;-60
2022/01/01 06:17:10;;;;;;;67.72;31.55;;;1.20;99.90;;;;;;5132977;27;20138;-60
2022/01/01 06:19:37;;;;;;;68.00;30.42;;;1.20;99.90;;;;;;5133368;27;20548;-60
2022/01/01 06:22:03;;;;;;;69.13;31.08;;;1.20;99.90;;;;;;5133539;27;20449;-60
2022/01/01 06:24:30;;;;;;;66.90;30.02;;;1.20;99.90;;;;;;5133189;27;20100;-60
2022/01/01 06:26:57;;;;;;;69.00;30.27;;;1.20;99.90;;;;;;5132827;27;20035;-60
2022/01/01 06:29:24;;;;;;;66.78;30.85;;;1.10;99.90;;;;;;5129923;27;20111;-60
2022/01/01 06:31:51;;;;;;;58.05;22.30;;;1.10;99.90;;;;;;5122378;27;20047;-60
2022/01/01 06:34:17;;;;;;;90.32;32.67;;;1.10;99.90;;;;;;5121043;27;20048;-60
2022/01/01 06:36:44;;;;;;;87.13;33.47;;;1.10;99.90;;;;;;5122117;27;20039;-60
2022/01/01 06:39:11;;;;;;;75.90;31.90;;;1.10;99.90;;;;;;5123434;27;20087;-60
2022/01/01 06:41:38;;;;;;;75.75;33.03;;;1.10;99.90;;;;;;5112460;28;20039;-60
2022/01/01 06:44:06;;;;;;;81.60;33.58;;;1.10;99.90;;;;;;5112270;28;20086;-60
2022/01/01 06:46:33;;;;;;;105.82;36.67;;;1.10;99.90;;;;;;5112037;28;20063;-60
2022/01/01 06:49:00;;;;;;;94.75;39.35;;;1.10;99.90;;;;;;5112426;28;20043;-60
2022/01/01 06:51:26;;;;;;;132.70;40.17;;;1.10;99.90;;;;;;5112437;28;20048;-61
2022/01/01 06:53:53;;;;;;;75.10;26.45;;;1.10;99.90;;;;;;5112099;28;20039;-60
2022/01/01 06:56:20;;;;;;;116.05;39.47;;;1.10;99.90;;;;;;5111895;28;20043;-61
2022/01/01 06:58:47;;;;;;;131.65;39.42;;;1.10;99.90;;;;;;5112042;28;20085;-60
2022/01/01 07:01:14;;;;;;;78.03;30.10;;;1.10;99.90;;;;;;5112447;28;20036;-60
2022/01/01 07:03:41;;;;;;;;;;;1.10;99.90;;;;;;5112418;28;20119;-60
2022/01/01 07:06:08;;;;;;;90.40;35.35;;;1.10;99.90;;;;;;5111580;28;20468;-61
2022/01/01 07:08:35;;;;;;;81.13;34.85;;;1.10;99.90;;;;;;5112118;28;20043;-60
2022/01/01 07:11:02;;;;;;;110.13;38.67;;;1.10;99.90;;;;;;5111583;28;20403;-60
2022/01/01 07:13:28;;;;;;;89.18;36.13;;;1.10;99.90;;;;;;5111661;28;20499;-60
2022/01/01 07:15:55;;;;;;;102.47;38.78;;;1.10;99.90;;;;;;5111504;28;20483;-60
2022/01/01 07:18:22;;;;;;;101.13;37.72;;;1.00;99.90;;;;;;5112046;28;20460;-61
2022/01/01 07:20:49;;;;;;;104.78;41.55;;;1.00;99.90;;;;;;5112011;28;20040;-60
2022/01/01 07:23:16;;;;;;;95.93;37.63;;;1.00;99.90;;;;;;5112010;28;20054;-60
2022/01/01 07:25:42;;;;;;;65.85;28.35;;;1.00;99.90;;;;;;5111436;28;20101;-61
2022/01/01 07:28:13;;;;;;;64.97;25.75;;;1.00;99.90;;;;;;5112051;28;20043;-60
2022/01/01 07:30:40;;;;;;;76.38;32.10;;;1.10;99.90;;;;;;5112013;28;20104;-60
2022/01/01 07:33:07;;;;;;;;;;;1.00;99.90;;;;;;5112020;28;20127;-60
2022/01/01 07:35:36;;;;;;;79.55;34.00;;;1.00;99.90;;;;;;5111302;28;19927;-60
2022/01/01 07:38:04;;;;;;;71.20;32.00;;;1.00;99.90;;;;;;5111715;28;20036;-60
2022/01/01 07:40:32;;;;;;;;;;;1.00;99.90;;;;;;5112179;28;20124;-60
2022/01/01 07:42:59;;;;;;;87.57;34.80;;;1.00;99.90;;;;;;5093387;28;20353;-60
2022/01/01 07:45:26;;;;;;;93.22;35.22;;;1.10;99.90;;;;;;5111395;28;20043;-60
2022/01/01 07:47:53;;;;;;;95.22;36.63;;;1.10;99.90;;;;;;5111661;28;20050;-60
2022/01/01 07:50:20;;;;;;;85.45;37.60;;;1.10;99.90;;;;;;5111639;28;20048;-60
2022/01/01 07:52:47;;;;;;;82.88;36.75;;;1.10;99.90;;;;;;5111630;28;20036;-60
2022/01/01 07:55:13;;;;;;;69.60;27.92;;;1.20;99.90;;;;;;5111200;28;20069;-61
2022/01/01 07:57:40;;;;;;;91.15;35.50;;;1.30;99.90;;;;;;5111792;28;20065;-60
2022/01/01 08:00:08;;;;;;;84.72;38.67;;;1.30;99.90;;;;;;5111439;28;20105;-60
2022/01/01 08:02:41;;;;;;;80.35;34.55;;;1.30;99.90;;;;;;5111669;28;20115;-60
2022/01/01 08:05:09;;;;;;;81.15;35.28;;;1.20;99.90;;;;;;5111303;28;20039;-60
2022/01/01 08:07:37;;;;;;;74.68;32.38;;;1.30;99.90;;;;;;5111235;28;20143;-60
2022/01/01 08:10:23;;;;;;;84.65;33.90;;;1.20;99.90;;;;;;5111553;28;20517;-60
2022/01/01 08:12:50;;;;;;;79.55;35.28;;;1.20;99.90;;;;;;5111436;28;20514;-60
2022/01/01 08:15:17;;;;;;;57.03;23.65;;;1.20;99.90;;;;;;5111168;28;20047;-60
2022/01/01 08:17:44;;;;;;;75.03;35.97;;;1.10;99.90;;;;;;5111142;28;20039;-60
2022/01/01 08:20:11;;;;;;;92.20;38.03;;;1.10;99.90;;;;;;5111400;28;20039;-60
2022/01/01 08:22:38;;;;;;;74.10;32.97;;;1.20;99.90;;;;;;5112025;28;20047;-60
2022/01/01 08:25:06;;;;;;;79.20;33.88;;;1.10;99.90;;;;;;5115078;28;20043;-60
2022/01/01 08:27:33;;;;;;;78.22;33.35;;;1.10;99.90;;;;;;5114924;28;20040;-60
2022/01/01 08:30:00;;;;;;;95.80;35.53;;;1.10;99.90;;;;;;5115035;28;20101;-60
2022/01/01 08:32:26;;;;;;;91.00;35.60;;;1.10;99.90;;;;;;5114979;28;20039;-60
2022/01/01 08:34:53;;;;;;;100.63;37.70;;;1.10;99.90;;;;;;5114773;28;20039;-60
2022/01/01 08:37:20;;;;;;;90.63;37.25;;;1.10;99.90;;;;;;5114610;28;20036;-60
2022/01/01 08:39:47;;;;;;;91.57;38.38;;;1.10;99.90;;;;;;5114917;28;20036;-60
2022/01/01 08:42:14;;;;;;;88.25;35.33;;;1.10;99.90;;;;;;5114794;28;20081;-60
2022/01/01 08:44:42;;;;;;;78.50;35.72;;;1.00;99.90;;;;;;5114687;28;20114;-60
2022/01/01 08:47:09;;;;;;;85.57;37.00;;;1.10;99.90;;;;;;5114298;28;20587;-60
2022/01/01 08:49:36;;;;;;;98.20;39.03;;;1.10;99.90;;;;;;5114655;28;20050;-61
2022/01/01 08:52:03;;;;;;;65.78;29.70;;;1.20;99.90;;;;;;5114585;28;20108;-61
2022/01/01 08:54:30;;;;;;;;;;;1.20;99.90;;;;;;5115082;28;20359;-60
2022/01/01 08:56:57;;;;;;;80.13;35.00;;;1.30;99.90;;;;;;5114100;28;19930;-60
2022/01/01 08:59:29;;;;;;;76.97;33.75;;;1.40;99.90;;;;;;5114476;28;20053;-60
2022/01/01 09:01:56;;;;;;;78.50;33.55;;;1.30;99.90;;;;;;5114543;28;20445;-60
2022/01/01 09:04:23;;;;;;;72.50;32.75;;;1.40;99.90;;;;;;5114392;28;20043;-60
2022/01/01 09:06:51;;;;;;;74.68;35.13;;;1.40;99.90;;;;;;5113803;28;20069;-60
2022/01/01 09:09:18;;;;;;;75.82;35.05;;;1.50;99.90;;;;;;5114654;28;20068;-60
2022/01/01 09:11:44;;;;;;;83.70;37.15;;;1.50;99.90;;;;;;5114303;28;20035;-60
2022/01/01 09:14:12;;;;;;;82.63;36.40;;;1.50;99.90;;;;;;5113921;28;20096;-60
2022/01/01 09:16:39;;;;;;;82.40;36.50;;;1.60;99.90;;;;;;5113157;28;20039;-60
2022/01/01 09:19:06;;;;;;;80.50;35.75;;;1.60;99.90;;;;;;5113104;28;20055;-60
2022/01/01 09:21:32;;;;;;;71.15;32.30;;;1.60;99.90;;;;;;5115008;27;20183;-60
2022/01/01 09:23:59;;;;;;;67.43;33.25;;;1.60;99.90;;;;;;5100178;27;20039;-60
2022/01/01 09:26:26;;;;;;;62.88;30.08;;;1.60;99.90;;;;;;5107345;28;20040;-60
2022/01/01 09:28:53;;;;;;;70.50;31.58;;;1.70;99.90;;;;;;5123141;27;20049;-60
2022/01/01 09:31:20;;;;;;;65.13;29.95;;;1.80;99.90;;;;;;5134453;27;20043;-60
2022/01/01 09:33:47;;;;;;;65.80;30.65;;;2.00;99.90;;;;;;5133948;27;20563;-60
2022/01/01 09:36:17;;;;;;;68.00;29.67;;;2.00;99.90;;;;;;5133232;27;20544;-61
2022/01/01 09:38:45;;;;;;;59.47;29.13;;;2.10;99.90;;;;;;5134140;27;20042;-61
2022/01/01 09:41:13;;;;;;;;;;;2.20;99.90;;;;;;5134591;27;20031;-60
2022/01/01 09:43:40;;;;;;;59.55;26.48;;;2.30;99.90;;;;;;5134141;27;19945;-61
2022/01/01 09:46:11;;;;;;;55.33;27.08;;;2.40;99.90;;;;;;5133479;27;20043;-61
2022/01/01 09:48:39;;;;;;;56.22;25.67;;;2.50;99.90;;;;;;5134129;27;20079;-61
2022/01/01 09:51:06;;;;;;;56.42;26.08;;;2.60;99.90;;;;;;5133925;27;20075;-60
2022/01/01 09:53:33;;;;;;;57.72;28.45;;;2.70;99.90;;;;;;5133873;27;20095;-60
2022/01/01 09:56:02;;;;;;;67.10;28.75;;;2.90;99.90;;;;;;5133761;27;20047;-61
2022/01/01 09:58:32;;;;;;;62.78;31.00;;;3.10;99.90;;;;;;5134005;27;20112;-60
2022/01/01 10:01:00;;;;;;;53.33;27.17;;;3.10;99.90;;;;;;5133765;27;20490;-61
2022/01/01 10:03:42;;;;;;;56.63;27.70;;;3.20;99.90;;;;;;5133759;27;20039;-61
2022/01/01 10:06:17;;;;;;;57.97;28.15;;;3.20;99.90;;;;;;5120330;27;20228;-61
2022/01/01 10:08:59;;;;;;;53.47;26.00;;;3.20;99.90;;;;;;5108199;27;20047;-61
2022/01/01 10:11:27;;;;;;;49.17;26.02;;;3.30;99.90;;;;;;5118289;27;20052;-61
2022/01/01 10:13:54;;;;;;;46.70;24.55;;;3.40;99.90;;;;;;5124411;27;20031;-60
2022/01/01 10:16:21;;;;;;;52.22;26.75;;;3.40;99.90;;;;;;5132916;27;20039;-61
2022/01/01 10:18:50;;;;;;;55.22;28.60;;;3.40;99.90;;;;;;5132956;27;20485;-60
2022/01/01 10:21:20;;;;;;;49.63;23.45;;;3.50;99.90;;;;;;5127577;27;20087;-61
2022/01/01 10:23:50;;;;;;;46.95;23.35;;;3.60;99.90;;;;;;5113845;27;20046;-61
2022/01/01 10:29:10;;;;;;;40.35;21.98;;;3.50;99.90;;;;;;5123699;27;20050;-60
2022/01/01 10:31:38;;;;;;;44.25;22.15;;;3.50;99.90;;;;;;5121770;27;20057;-61
2022/01/01 10:34:10;;;;;;;40.40;22.02;;;3.50;99.90;;;;;;5136856;22;20039;-62
2022/01/01 10:36:37;;;;;;;43.85;22.38;;;3.50;99.90;;;;;;5130608;27;20062;-61
2022/01/01 10:39:12;;;;;;;42.13;21.50;;;3.50;99.90;;;;;;5124572;27;20559;-61
2022/01/01 10:41:58;;;;;;;40.50;20.83;;;3.60;99.90;;;;;;5113989;27;20073;-62
2022/01/01 10:44:39;;;;;;;36.08;20.80;;;3.60;99.90;;;;;;5121660;27;20053;-61
2022/01/01 10:47:15;;;;;;;36.03;20.23;;;3.60;99.90;;;;;;5108055;28;20112;-61
2022/01/01 10:52:28;;;;;;;41.47;20.67;;;3.60;99.90;;;;;;5100264;28;20499;-62
2022/01/01 10:54:56;;;;;;;36.85;19.70;;;3.70;99.90;;;;;;5104047;28;20052;-61
2022/01/01 10:57:27;;;;;;;37.90;20.63;;;3.80;99.90;;;;;;5106018;28;20032;-62
2022/01/01 11:00:15;;;;;;;40.88;20.52;;;3.90;99.90;;;;;;5104148;28;20075;-62
2022/01/01 11:02:44;;;;;;;44.00;21.50;;;4.00;99.90;;;;;;5104012;28;20035;-62
2022/01/01 11:05:12;;;;;;;38.28;20.10;;;4.10;99.90;;;;;;5098780;28;20042;-61
2022/01/01 11:07:49;;;;;;;38.53;19.20;;;4.10;99.90;;;;;;5104332;28;20086;-61
2022/01/01 11:10:18;;;;;;;41.13;20.83;;;4.20;99.90;;;;;;5100113;28;20507;-61
2022/01/01 11:12:45;;;;;;;39.78;20.50;;;4.30;99.90;;;;;;5103296;28;20048;-61
2022/01/01 11:15:13;;;;;;;36.03;19.13;;;4.30;99.90;;;;;;5098808;28;20046;-62
2022/01/01 11:17:42;;;;;;;38.78;20.17;;;4.40;99.90;;;;;;5104157;28;20105;-62
2022/01/01 11:20:10;;;;;;;40.97;20.40;;;4.50;99.90;;;;;;5105634;28;20036;-62
2022/01/01 11:22:46;;;;;;;39.67;19.27;;;4.50;99.90;;;;;;5121020;27;20054;-61
2022/01/01 11:25:13;;;;;;;36.72;19.05;;;4.50;99.90;;;;;;5116285;28;20052;-61
2022/01/01 11:27:40;;;;;;;36.50;18.77;;;4.60;99.90;;;;;;5125692;28;20087;-61
2022/01/01 11:30:11;;;;;;;37.70;19.55;;;4.60;99.90;;;;;;5118831;28;20085;-62
2022/01/01 11:32:55;;;;;;;38.70;20.10;;;4.70;99.90;;;;;;5125797;28;20080;-62
2022/01/01 11:35:30;;;;;;;35.42;18.88;;;4.80;99.90;;;;;;5113380;28;20055;-61
2022/01/01 11:37:59;;;;;;;35.10;18.80;;;4.90;99.90;;;;;;5103236;28;20109;-62
2022/01/01 11:40:30;;;;;;;46.38;23.08;;;5.00;99.90;;;;;;5106160;28;20069;-61
2022/01/01 11:42:57;;;;;;;33.08;19.10;;;5.10;99.90;;;;;;5120156;28;20046;-62
2022/01/01 11:45:44;;;;;;;41.75;19.67;;;5.20;99.90;;;;;;5117550;28;20446;-61
2022/01/01 11:48:28;;;;;;;32.78;17.23;;;5.20;99.90;;;;;;5113718;28;20446;-61
2022/01/01 11:50:55;;;;;;;31.15;16.63;;;5.30;99.90;;;;;;5120314;28;20125;-61
2022/01/01 11:53:31;;;;;;;;;;;5.20;99.90;;;;;;5128559;28;20043;-62
2022/01/01 11:56:06;;;;;;;34.88;18.70;;;5.30;99.90;;;;;;5122038;28;21252;-61
2022/01/01 11:58:51;;;;;;;36.65;18.80;;;5.40;99.90;;;;;;5104817;28;20111;-62
2022/01/01 12:01:21;;;;;;;37.15;18.08;;;5.50;99.90;;;;;;5117132;27;20118;-62
2022/01/01 12:03:52;;;;;;;33.00;17.58;;;5.50;99.90;;;;;;5121483;27;20047;-61
2022/01/01 12:06:20;;;;;;;32.83;17.75;;;5.60;99.90;;;;;;5129882;27;20043;-61
2022/01/01 12:08:49;;;;;;;32.25;16.70;;;5.60;99.90;;;;;;5112374;27;20088;-61
2022/01/01 12:11:31;;;;;;;27.70;15.77;;;5.70;99.90;;;;;;5124596;27;20047;-61
2022/01/01 12:14:00;;;;;;;31.88;16.50;;;5.70;99.90;;;;;;5128558;27;20485;-61
2022/01/01 12:16:29;;;;;;;35.05;17.13;;;5.90;99.90;;;;;;5102559;28;20048;-61
2022/01/01 12:19:06;;;;;;;31.05;17.60;;;6.00;99.90;;;;;;5106500;28;20413;-61
2022/01/01 12:21:39;;;;;;;35.03;17.37;;;6.00;99.90;;;;;;5114030;28;20035;-61
2022/01/01 12:24:11;;;;;;;32.63;18.08;;;5.90;99.90;;;;;;5104909;28;20050;-60
2022/01/01 12:26:37;;;;;;;35.40;17.80;;;5.80;99.90;;;;;;5116698;27;20042;-60
2022/01/01 12:29:07;;;;;;;33.63;18.42;;;5.80;99.90;;;;;;5129450;27;20241;-61
2022/01/01 12:31:34;;;;;;;32.05;17.65;;;5.90;99.90;;;;;;5128828;27;20537;-61
2022/01/01 12:34:10;;;;;;;33.85;17.17;;;6.00;99.90;;;;;;5126673;27;20048;-61
2022/01/01 12:36:41;;;;;;;33.45;17.63;;;6.00;99.90;;;;;;5126889;27;20031;-62
2022/01/01 12:39:09;;;;;;;37.72;18.55;;;6.10;99.90;;;;;;5130073;27;20504;-61
2022/01/01 12:41:44;;;;;;;31.15;16.52;;;6.10;99.90;;;;;;5131589;27;20040;-61
2022/01/01 12:44:22;;;;;;;32.90;16.25;;;6.30;99.90;;;;;;5125284;27;20086;-61
2022/01/01 12:46:51;;;;;;;29.90;16.23;;;6.40;99.90;;;;;;5115740;27;20495;-61
2022/01/01 12:49:25;;;;;;;27.60;14.90;;;6.50;99.90;;;;;;5104597;28;20093;-62
2022/01/01 12:51:56;;;;;;;35.45;17.25;;;6.50;99.90;;;;;;5113931;28;20043;-61